Time,TemperatureF,DewpointF,PressureIn,WindDirection,WindDirectionDegrees,WindSpeedMPH,WindSpeedGustMPH,Humidity,HourlyPrecipIn,Conditions,Clouds,dailyrainin,SoftwareType,DateUTC
2013-01-26 00:02:00,38.0,38.0,29.93,South,180,0.0,2.0,100,0.00,,,0.04,,2013-01-26 08:02:00,
2013-01-26 00:11:00,38.0,38.0,29.93,South,180,0.0,2.0,100,0.00,,,0.04,,2013-01-26 08:11:00,
2013-01-26 00:21:00,38.0,38.0,29.93,North,-999,0.0,0.0,100,0.00,,,0.04,,2013-01-26 08:21:00,
2013-01-26 00:31:00,38.0,38.0,29.93,North,-999,0.0,0.0,100,0.00,,,0.04,,2013-01-26 08:31:00,
2013-01-26 00:42:00,38.0,38.0,29.93,North,-999,0.0,0.0,100,0.00,,,0.04,,2013-01-26 08:42:00,
2013-01-26 00:53:00,37.0,37.0,29.93,North,-999,0.0,0.0,100,0.00,,,0.03,,2013-01-26 08:53:00,
2013-01-26 01:01:00,37.0,37.0,29.92,North,-999,0.0,0.0,100,0.00,,,0.02,,2013-01-26 09:01:00,
2013-01-26 01:11:00,37.0,37.0,29.92,North,-999,0.0,0.0,100,0.00,,,0.02,,2013-01-26 09:11:00,
2013-01-26 01:22:00,37.0,37.0,29.92,North,-999,0.0,0.0,100,0.00,,,0.02,,2013-01-26 09:22:00,
2013-01-26 01:31:00,37.0,37.0,29.92,South,180,0.0,1.0,100,0.01,,,0.03,,2013-01-26 09:31:00,
2013-01-26 01:42:00,37.0,37.0,29.92,South,180,0.0,1.0,100,0.01,,,0.03,,2013-01-26 09:42:00,
2013-01-26 01:51:00,37.0,37.0,29.91,SW,225,0.0,1.0,100,0.01,,,0.03,,2013-01-26 09:51:00,
2013-01-26 02:01:00,37.0,37.0,29.91,North,-999,0.0,0.0,100,0.01,,,0.03,,2013-01-26 10:01:00,
2013-01-26 02:11:00,37.0,37.0,29.91,North,-999,0.0,0.0,100,0.01,,,0.03,,2013-01-26 10:11:00,
2013-01-26 02:21:00,38.0,38.0,29.91,North,-999,0.0,0.0,100,0.01,,,0.03,,2013-01-26 10:21:00,
2013-01-26 02:31:00,38.0,38.0,29.91,North,-999,0.0,0.0,100,0.01,,,0.03,,2013-01-26 10:31:00,
2013-01-26 02:42:00,38.0,38.0,29.91,North,-999,0.0,0.0,100,0.01,,,0.03,,2013-01-26 10:42:00,
2013-01-26 02:52:00,38.0,38.0,29.91,North,-999,0.0,0.0,100,0.00,,,0.03,,2013-01-26 10:52:00,
2013-01-26 03:01:00,37.0,37.0,29.91,North,-999,0.0,0.0,100,0.00,,,0.03,,2013-01-26 11:01:00,
2013-01-26 03:12:00,37.0,37.0,29.91,North,-999,0.0,0.0,100,0.00,,,0.03,,2013-01-26 11:12:00,
2013-01-26 03:21:00,37.0,37.0,29.91,SW,225,0.0,1.0,100,0.00,,,0.02,,2013-01-26 11:21:00,
2013-01-26 03:31:00,37.0,37.0,29.91,North,-999,0.0,0.0,100,0.00,,,0.02,,2013-01-26 11:31:00,
2013-01-26 03:41:00,37.0,37.0,29.91,North,-999,0.0,0.0,100,0.00,,,0.02,,2013-01-26 11:41:00,
2013-01-26 03:52:00,37.0,37.0,29.90,SW,225,0.0,1.0,100,0.00,,,0.01,,2013-01-26 11:52:00,
2013-01-26 04:01:00,37.0,37.0,29.90,SSW,202,0.0,1.0,100,0.00,,,0.01,,2013-01-26 12:01:00,
2013-01-26 04:12:00,37.0,37.0,29.90,SSW,202,0.0,1.0,100,0.00,,,0.01,,2013-01-26 12:12:00,
2013-01-26 04:22:00,37.0,37.0,29.89,SW,225,0.0,1.0,100,0.00,,,0.01,,2013-01-26 12:22:00,
2013-01-26 04:32:00,37.0,37.0,29.89,SSW,202,0.0,2.0,100,0.00,,,0.01,,2013-01-26 12:32:00,
2013-01-26 04:42:00,37.0,37.0,29.89,SSW,202,0.0,2.0,100,0.00,,,0.01,,2013-01-26 12:42:00,
2013-01-26 04:52:00,38.0,38.0,29.89,SSW,202,0.0,2.0,99,0.00,,,0.01,,2013-01-26 12:52:00,
2013-01-26 05:02:00,38.0,37.0,29.88,North,-999,0.0,0.0,98,0.00,,,0.01,,2013-01-26 13:02:00,
2013-01-26 05:12:00,38.0,37.0,29.88,North,-999,0.0,0.0,98,0.00,,,0.01,,2013-01-26 13:12:00,
2013-01-26 05:22:00,38.0,38.0,29.88,WSW,247,0.0,1.0,99,0.00,,,0.01,,2013-01-26 13:22:00,
2013-01-26 05:32:00,38.0,38.0,29.88,SW,225,0.0,1.0,99,0.00,,,0.01,,2013-01-26 13:32:00,
2013-01-26 05:42:00,38.0,38.0,29.88,SW,225,0.0,1.0,99,0.00,,,0.01,,2013-01-26 13:42:00,
2013-01-26 05:52:00,38.0,38.0,29.88,North,-999,0.0,0.0,99,0.00,,,0.01,,2013-01-26 13:52:00,
2013-01-26 06:02:00,38.0,38.0,29.88,North,-999,0.0,0.0,99,0.00,,,0.01,,2013-01-26 14:02:00,
2013-01-26 06:11:00,38.0,38.0,29.88,North,-999,0.0,0.0,99,0.00,,,0.01,,2013-01-26 14:11:00,
2013-01-26 06:21:00,38.0,38.0,29.89,SE,135,0.0,1.0,99,0.02,,,0.03,,2013-01-26 14:21:00,
2013-01-26 06:32:00,38.0,38.0,29.89,North,-999,0.0,0.0,99,0.03,,,0.04,,2013-01-26 14:32:00,
2013-01-26 06:43:00,38.0,38.0,29.89,North,-999,0.0,0.0,99,0.03,,,0.04,,2013-01-26 14:43:00,
2013-01-26 06:52:00,38.0,38.0,29.89,NE,45,0.0,1.0,99,0.04,,,0.05,,2013-01-26 14:52:00,
2013-01-26 07:02:00,38.0,38.0,29.89,North,-999,0.0,0.0,99,0.06,,,0.07,,2013-01-26 15:02:00,
2013-01-26 07:11:00,38.0,38.0,29.89,North,-999,0.0,0.0,99,0.06,,,0.07,,2013-01-26 15:11:00,
2013-01-26 07:21:00,37.0,37.0,29.89,ENE,67,0.0,1.0,99,0.06,,,0.09,,2013-01-26 15:21:00,
2013-01-26 07:32:00,37.0,37.0,29.89,WNW,292,0.0,2.0,99,0.07,,,0.10,,2013-01-26 15:32:00,
2013-01-26 07:42:00,37.0,37.0,29.89,WNW,292,0.0,2.0,99,0.07,,,0.10,,2013-01-26 15:42:00,
2013-01-26 07:52:00,37.0,37.0,29.90,North,-999,0.0,0.0,99,0.07,,,0.12,,2013-01-26 15:52:00,
2013-01-26 08:01:00,37.0,37.0,29.90,NNW,337,0.0,1.0,99,0.06,,,0.12,,2013-01-26 16:01:00,
2013-01-26 08:11:00,37.0,37.0,29.90,NNW,337,0.0,1.0,99,0.06,,,0.12,,2013-01-26 16:11:00,
2013-01-26 08:21:00,37.0,37.0,29.90,NNW,337,0.0,1.0,99,0.06,,,0.12,,2013-01-26 16:21:00,
2013-01-26 08:31:00,37.0,37.0,29.90,North,0,0.0,1.0,100,0.03,,,0.13,,2013-01-26 16:31:00,
2013-01-26 08:42:00,37.0,37.0,29.90,North,0,0.0,1.0,100,0.03,,,0.13,,2013-01-26 16:42:00,
2013-01-26 08:53:00,37.0,37.0,29.90,NE,45,0.0,1.0,100,0.02,,,0.13,,2013-01-26 16:53:00,
2013-01-26 09:02:00,38.0,38.0,29.90,North,-999,0.0,0.0,100,0.02,,,0.15,,2013-01-26 17:02:00,
2013-01-26 09:12:00,38.0,38.0,29.90,North,-999,0.0,0.0,100,0.02,,,0.15,,2013-01-26 17:12:00,
2013-01-26 09:21:00,38.0,38.0,29.91,North,-999,0.0,0.0,100,0.04,,,0.18,,2013-01-26 17:21:00,
2013-01-26 09:32:00,38.0,38.0,29.91,West,270,0.0,1.0,100,0.05,,,0.19,,2013-01-26 17:32:00,
2013-01-26 09:41:00,38.0,38.0,29.91,West,270,0.0,1.0,100,0.05,,,0.19,,2013-01-26 17:41:00,
2013-01-26 09:52:00,38.0,38.0,29.91,East,90,0.0,4.0,100,0.06,,,0.20,,2013-01-26 17:52:00,
2013-01-26 10:02:00,38.0,38.0,29.91,East,90,0.0,4.0,100,0.06,,,0.20,,2013-01-26 18:02:00,
2013-01-26 10:11:00,38.0,38.0,29.91,East,90,0.0,4.0,100,0.06,,,0.20,,2013-01-26 18:11:00,
2013-01-26 10:21:00,38.0,38.0,29.92,WNW,292,0.0,2.0,99,0.06,,,0.24,,2013-01-26 18:21:00,
2013-01-26 10:33:00,38.0,38.0,29.93,NNE,22,1.0,4.0,99,0.06,,,0.25,,2013-01-26 18:33:00,
2013-01-26 10:42:00,38.0,38.0,29.93,NNE,22,1.0,4.0,99,0.06,,,0.25,,2013-01-26 18:42:00,
2013-01-26 10:52:00,38.0,38.0,29.93,NNE,22,0.0,1.0,99,0.06,,,0.27,,2013-01-26 18:52:00,
2013-01-26 11:02:00,38.0,38.0,29.93,NE,45,0.0,1.0,99,0.06,,,0.29,,2013-01-26 19:02:00,
2013-01-26 11:11:00,38.0,38.0,29.93,NE,45,0.0,1.0,99,0.06,,,0.29,,2013-01-26 19:11:00,
2013-01-26 11:22:00,38.0,38.0,29.93,NW,315,0.0,1.0,99,0.08,,,0.32,,2013-01-26 19:22:00,
2013-01-26 11:32:00,38.0,38.0,29.93,NNW,337,0.0,2.0,99,0.09,,,0.34,,2013-01-26 19:32:00,
2013-01-26 11:42:00,38.0,38.0,29.93,NNW,337,0.0,2.0,99,0.09,,,0.34,,2013-01-26 19:42:00,
2013-01-26 11:52:00,38.0,38.0,29.93,NNE,22,0.0,1.0,99,0.12,,,0.39,,2013-01-26 19:52:00,
2013-01-26 12:02:00,37.0,37.0,29.93,North,-999,0.0,0.0,99,0.13,,,0.42,,2013-01-26 20:02:00,
2013-01-26 12:11:00,37.0,37.0,29.93,North,-999,0.0,0.0,99,0.13,,,0.42,,2013-01-26 20:11:00,
2013-01-26 12:21:00,36.0,36.0,29.94,West,270,0.0,1.0,99,0.17,,,0.49,,2013-01-26 20:21:00,
2013-01-26 12:32:00,36.0,36.0,29.93,North,-999,0.0,0.0,99,0.18,,,0.52,,2013-01-26 20:32:00,
2013-01-26 12:41:00,36.0,36.0,29.93,North,-999,0.0,0.0,99,0.18,,,0.52,,2013-01-26 20:41:00,
2013-01-26 12:52:00,36.0,36.0,29.93,ENE,67,0.0,2.0,99,0.20,,,0.59,,2013-01-26 20:52:00,
2013-01-26 13:02:00,36.0,36.0,29.93,ENE,67,0.0,4.0,99,0.20,,,0.62,,2013-01-26 21:02:00,
2013-01-26 13:11:00,36.0,36.0,29.93,ENE,67,0.0,4.0,99,0.20,,,0.62,,2013-01-26 21:11:00,
2013-01-26 13:22:00,36.0,36.0,29.93,North,-999,0.0,0.0,99,0.19,,,0.68,,2013-01-26 21:22:00,
2013-01-26 13:31:00,36.0,36.0,29.93,West,270,0.0,1.0,99,0.19,,,0.71,,2013-01-26 21:31:00,
2013-01-26 13:42:00,36.0,36.0,29.93,West,270,0.0,1.0,99,0.19,,,0.71,,2013-01-26 21:42:00,
2013-01-26 13:52:00,36.0,36.0,29.93,North,-999,0.0,0.0,99,0.17,,,0.76,,2013-01-26 21:52:00,
2013-01-26 14:00:00,35.0,35.0,29.93,East,90,0.0,1.0,100,0.17,,,0.85,,2013-01-26 22:00:00,
2013-01-26 14:01:00,36.0,36.0,29.94,North,-999,0.0,0.0,100,0.17,,,0.80,,2013-01-26 22:01:00,
2013-01-26 14:11:00,36.0,36.0,29.94,North,-999,0.0,0.0,100,0.17,,,0.80,,2013-01-26 22:11:00,
2013-01-26 14:21:00,35.0,35.0,29.93,East,90,0.0,1.0,100,0.17,,,0.85,,2013-01-26 22:21:00,
2013-01-26 14:31:00,35.0,35.0,29.93,East,90,0.0,1.0,100,0.17,,,0.85,,2013-01-26 22:31:00,
2013-01-26 14:41:00,35.0,35.0,29.93,East,90,0.0,1.0,100,0.17,,,0.85,,2013-01-26 22:41:00,
2013-01-26 14:52:00,35.0,35.0,29.93,East,90,0.0,1.0,100,0.17,,,0.85,,2013-01-26 22:52:00,
2013-01-26 15:33:00,35.0,35.0,29.94,North,-999,0.0,0.0,100,0.12,,,1.01,,2013-01-26 23:33:00,
2013-01-26 15:42:00,35.0,35.0,29.94,North,-999,0.0,0.0,100,0.12,,,1.01,,2013-01-26 23:42:00,
2013-01-26 15:52:00,35.0,35.0,29.94,NNE,22,0.0,1.0,100,0.10,,,1.02,,2013-01-26 23:52:00,
2013-01-26 16:01:00,35.0,35.0,29.94,ENE,67,0.0,1.0,100,0.10,,,1.03,,2013-01-27 00:01:00,
2013-01-26 16:11:00,35.0,35.0,29.94,ENE,67,0.0,1.0,100,0.10,,,1.03,,2013-01-27 00:11:00,
2013-01-26 16:21:00,35.0,35.0,29.94,East,90,0.0,1.0,100,0.07,,,1.04,,2013-01-27 00:21:00,
2013-01-26 16:32:00,35.0,35.0,29.94,North,-999,0.0,0.0,100,0.03,,,1.04,,2013-01-27 00:32:00,
2013-01-26 16:41:00,35.0,35.0,29.94,North,-999,0.0,0.0,100,0.03,,,1.04,,2013-01-27 00:41:00,
2013-01-26 16:51:00,35.0,35.0,29.94,North,-999,0.0,0.0,100,0.03,,,1.04,,2013-01-27 00:51:00,
2013-01-26 17:01:00,35.0,35.0,29.95,North,-999,0.0,0.0,100,0.01,,,1.05,,2013-01-27 01:01:00,
2013-01-26 17:11:00,35.0,35.0,29.95,North,-999,0.0,0.0,100,0.01,,,1.05,,2013-01-27 01:11:00,
2013-01-26 17:22:00,35.0,35.0,29.95,North,-999,0.0,0.0,100,0.01,,,1.05,,2013-01-27 01:22:00,
2013-01-26 17:32:00,36.0,36.0,29.96,North,-999,0.0,0.0,100,0.01,,,1.05,,2013-01-27 01:32:00,
2013-01-26 17:41:00,36.0,36.0,29.96,North,-999,0.0,0.0,100,0.01,,,1.05,,2013-01-27 01:41:00,
2013-01-26 17:51:00,36.0,36.0,29.96,North,-999,0.0,0.0,100,0.01,,,1.05,,2013-01-27 01:51:00,
2013-01-26 18:01:00,36.0,36.0,29.96,North,-999,0.0,0.0,100,0.00,,,1.05,,2013-01-27 02:01:00,
2013-01-26 18:11:00,36.0,36.0,29.96,North,-999,0.0,0.0,100,0.00,,,1.05,,2013-01-27 02:11:00,
2013-01-26 18:21:00,35.0,35.0,29.96,North,-999,0.0,0.0,100,0.00,,,1.05,,2013-01-27 02:21:00,
2013-01-26 18:31:00,35.0,35.0,29.96,North,-999,0.0,0.0,100,0.00,,,1.05,,2013-01-27 02:31:00,
2013-01-26 18:41:00,35.0,35.0,29.96,North,-999,0.0,0.0,100,0.00,,,1.05,,2013-01-27 02:41:00,
2013-01-26 18:52:00,35.0,35.0,29.96,North,-999,0.0,0.0,100,0.00,,,1.05,,2013-01-27 02:52:00,
2013-01-26 19:01:00,36.0,36.0,29.97,SSE,157,0.0,2.0,100,0.00,,,1.05,,2013-01-27 03:01:00,
2013-01-26 19:11:00,36.0,36.0,29.97,SSE,157,0.0,2.0,100,0.00,,,1.05,,2013-01-27 03:11:00,
2013-01-26 19:21:00,36.0,36.0,29.97,South,180,0.0,1.0,100,0.01,,,1.06,,2013-01-27 03:21:00,
2013-01-26 19:31:00,36.0,36.0,29.98,NE,45,0.0,2.0,100,0.01,,,1.06,,2013-01-27 03:31:00,
2013-01-26 19:41:00,36.0,36.0,29.98,NE,45,0.0,2.0,100,0.01,,,1.06,,2013-01-27 03:41:00,
2013-01-26 19:51:00,36.0,36.0,29.98,North,-999,0.0,0.0,100,0.01,,,1.06,,2013-01-27 03:51:00,
2013-01-26 20:01:00,36.0,36.0,29.98,North,-999,0.0,0.0,100,0.02,,,1.07,,2013-01-27 04:01:00,
2013-01-26 20:11:00,36.0,36.0,29.98,North,-999,0.0,0.0,100,0.02,,,1.07,,2013-01-27 04:11:00,
2013-01-26 20:21:00,36.0,36.0,29.98,North,-999,0.0,0.0,100,0.02,,,1.08,,2013-01-27 04:21:00,
2013-01-26 20:31:00,36.0,36.0,29.98,North,-999,0.0,0.0,100,0.03,,,1.09,,2013-01-27 04:31:00,
2013-01-26 20:41:00,36.0,36.0,29.98,North,-999,0.0,0.0,100,0.03,,,1.09,,2013-01-27 04:41:00,
2013-01-26 20:51:00,36.0,36.0,29.99,North,-999,0.0,0.0,100,0.03,,,1.09,,2013-01-27 04:51:00,
2013-01-26 21:03:00,36.0,36.0,29.99,North,-999,0.0,0.0,100,0.03,,,1.10,,2013-01-27 05:03:00,
2013-01-26 21:11:00,36.0,36.0,29.99,North,-999,0.0,0.0,100,0.03,,,1.10,,2013-01-27 05:11:00,
2013-01-26 21:22:00,36.0,36.0,30.00,North,-999,0.0,0.0,100,0.02,,,1.10,,2013-01-27 05:22:00,
2013-01-26 21:31:00,36.0,36.0,30.00,North,-999,0.0,0.0,100,0.02,,,1.10,,2013-01-27 05:31:00,
2013-01-26 21:41:00,36.0,36.0,30.00,North,-999,0.0,0.0,100,0.02,,,1.10,,2013-01-27 05:41:00,
2013-01-26 21:51:00,36.0,36.0,30.01,North,-999,0.0,0.0,100,0.04,,,1.13,,2013-01-27 05:51:00,
2013-01-26 22:01:00,36.0,36.0,30.01,NNE,22,0.0,1.0,100,0.05,,,1.15,,2013-01-27 06:01:00,
2013-01-26 22:11:00,36.0,36.0,30.01,NNE,22,0.0,1.0,100,0.05,,,1.15,,2013-01-27 06:11:00,
2013-01-26 22:21:00,36.0,36.0,30.01,North,-999,0.0,0.0,100,0.06,,,1.16,,2013-01-27 06:21:00,
2013-01-26 22:31:00,36.0,36.0,30.01,North,-999,0.0,0.0,100,0.06,,,1.16,,2013-01-27 06:31:00,
2013-01-26 22:41:00,36.0,36.0,30.01,North,-999,0.0,0.0,100,0.06,,,1.16,,2013-01-27 06:41:00,
2013-01-26 22:51:00,36.0,36.0,30.01,North,-999,0.0,0.0,100,0.03,,,1.16,,2013-01-27 06:51:00,
2013-01-26 23:01:00,36.0,36.0,30.02,North,-999,0.0,0.0,100,0.01,,,1.16,,2013-01-27 07:01:00,
2013-01-26 23:13:00,36.0,36.0,30.02,North,-999,0.0,0.0,100,0.01,,,1.16,,2013-01-27 07:13:00,
2013-01-26 23:21:00,36.0,36.0,30.02,South,180,0.0,1.0,100,0.00,,,1.16,,2013-01-27 07:21:00,
2013-01-26 23:31:00,36.0,36.0,30.02,South,180,0.0,1.0,100,0.00,,,1.16,,2013-01-27 07:31:00,
2013-01-26 23:41:00,36.0,36.0,30.02,South,180,0.0,1.0,100,0.00,,,1.16,,2013-01-27 07:41:00,
2013-01-26 23:51:00,36.0,36.0,30.02,North,-999,0.0,0.0,100,0.00,,,1.16,,2013-01-27 07:51:00,